createdAt,value
2022-09-17T00:03:23.361Z,8.65
2022-09-17T00:11:33.225Z,9.27
2022-09-17T00:19:38.556Z,8.98
2022-09-17T00:27:46.516Z,9.45
2022-09-17T00:36:01.301Z,8.43
2022-09-17T00:44:36.383Z,6.88
2022-09-17T00:52:48.605Z,6.90
2022-09-17T01:00:53.981Z,7.65
2022-09-17T01:09:29.470Z,6.97
2022-09-17T01:17:45.470Z,8.15
2022-09-17T01:26:09.854Z,8.40
2022-09-17T01:34:27.126Z,12.18
2022-09-17T01:42:39.362Z,16.48
2022-09-17T01:50:52.214Z,19.08
2022-09-17T01:59:05.533Z,21.58
2022-09-17T02:15:26.752Z,17.48
2022-09-17T02:23:39.784Z,17.85
2022-09-17T02:31:45.185Z,17.95
2022-09-17T02:39:53.379Z,19.60
2022-09-17T02:48:37.367Z,17.55
2022-09-17T02:56:55.195Z,18.83
2022-09-17T03:05:00.961Z,17.25
2022-09-17T03:13:09.107Z,17.55
2022-09-17T03:21:14.611Z,13.02
2022-09-17T03:29:22.660Z,10.68
2022-09-17T03:37:32.754Z,11.18
2022-09-17T03:45:41.022Z,11.95
2022-09-17T03:53:46.395Z,10.13
2022-09-17T04:01:54.488Z,11.20
2022-09-17T04:09:59.875Z,12.00
2022-09-17T04:18:07.990Z,12.73
2022-09-17T04:26:13.588Z,12.95
2022-09-17T04:34:21.579Z,12.43
2022-09-17T04:42:27.069Z,11.57
2022-09-17T04:50:35.373Z,9.55
2022-09-17T04:58:40.696Z,7.63
2022-09-17T05:06:48.576Z,6.05
2022-09-17T05:14:53.911Z,6.57
2022-09-17T05:23:01.799Z,5.30
2022-09-17T05:31:07.228Z,5.15
2022-09-17T05:39:15.266Z,6.40
2022-09-17T05:47:20.581Z,7.60
2022-09-17T05:55:28.783Z,4.32
2022-09-17T06:03:34.098Z,4.38
2022-09-17T06:11:42.187Z,4.60
2022-09-17T06:19:47.559Z,3.58
2022-09-17T06:27:55.472Z,3.08
2022-09-17T06:36:03.146Z,2.10
2022-09-17T06:44:11.126Z,1.95
2022-09-17T06:52:16.394Z,2.38
2022-09-17T07:00:24.392Z,2.60
2022-09-17T07:08:29.929Z,2.33
2022-09-17T07:16:38.689Z,2.83
2022-09-17T07:24:43.999Z,3.15
2022-09-17T07:32:51.904Z,3.10
2022-09-17T07:41:01.790Z,3.08
2022-09-17T07:49:09.706Z,4.00
2022-09-17T07:57:14.952Z,3.58
2022-09-17T08:05:22.864Z,3.80
2022-09-17T08:13:28.196Z,3.90
2022-09-17T08:21:36.183Z,3.90
2022-09-17T08:29:41.442Z,4.70
2022-09-17T08:37:49.603Z,3.97
2022-09-17T08:45:57.532Z,3.53
2022-09-17T08:54:13.470Z,3.50
2022-09-17T09:02:29.572Z,3.67
2022-09-17T09:10:49.085Z,3.60
2022-09-17T09:18:57.706Z,3.38
2022-09-17T09:27:17.880Z,3.30
2022-09-17T09:35:25.140Z,2.88
2022-09-17T09:44:02.848Z,3.10
2022-09-17T09:52:20.210Z,2.92
2022-09-17T10:00:32.114Z,2.85
2022-09-17T10:08:39.294Z,2.95
2022-09-17T10:16:47.203Z,2.30
2022-09-17T10:24:53.416Z,2.53
2022-09-17T10:33:19.206Z,2.83
2022-09-17T10:41:25.766Z,2.50
2022-09-17T10:49:40.101Z,3.00
2022-09-17T10:58:05.212Z,2.92
2022-09-17T11:06:32.894Z,2.95
2022-09-17T11:14:55.261Z,3.40
2022-09-17T11:23:17.355Z,2.78
2022-09-17T11:31:33.584Z,2.28
2022-09-17T11:39:48.169Z,2.65
2022-09-17T11:47:57.478Z,2.80
2022-09-17T11:56:11.381Z,2.70
2022-09-17T12:04:38.545Z,2.58
2022-09-17T12:12:55.257Z,2.63
2022-09-17T12:21:03.438Z,3.13
2022-09-17T12:29:24.122Z,2.67
2022-09-17T12:37:39.891Z,2.47
2022-09-17T12:46:02.452Z,2.78
2022-09-17T12:54:13.657Z,3.10
2022-09-17T13:02:26.399Z,2.65
2022-09-17T13:11:08.706Z,2.70
2022-09-17T13:19:31.363Z,2.90
2022-09-17T13:27:38.357Z,4.23
2022-09-17T13:35:53.321Z,4.30
2022-09-17T13:43:58.814Z,4.45
2022-09-17T13:52:11.691Z,3.28
2022-09-17T14:00:47.803Z,3.88
2022-09-17T14:08:58.049Z,3.22
2022-09-17T14:17:03.664Z,4.28
2022-09-17T14:25:31.361Z,11.93
2022-09-17T14:33:37.594Z,6.35
2022-09-17T14:41:47.010Z,4.05
2022-09-17T14:49:52.630Z,3.88
2022-09-17T14:58:02.654Z,4.15
2022-09-17T15:06:08.200Z,4.50
2022-09-17T15:14:21.447Z,4.97
2022-09-17T15:22:30.219Z,4.55
2022-09-17T15:30:38.200Z,4.05
2022-09-17T15:38:44.791Z,4.78
2022-09-17T15:46:52.985Z,5.18
2022-09-17T15:54:58.299Z,5.45
2022-09-17T16:03:53.662Z,5.15
2022-09-17T16:11:58.924Z,5.43
2022-09-17T16:20:11.185Z,5.38
2022-09-17T16:28:19.572Z,5.88
2022-09-17T16:36:27.681Z,5.65
2022-09-17T16:44:33.310Z,6.22
2022-09-17T16:52:41.354Z,6.00
2022-09-17T17:00:47.285Z,6.53
2022-09-17T17:08:55.523Z,5.85
2022-09-17T17:17:00.834Z,6.75
2022-09-17T17:25:09.882Z,6.43
2022-09-17T17:33:15.198Z,5.60
2022-09-17T17:41:25.577Z,5.35
2022-09-17T17:49:30.897Z,4.53
2022-09-17T17:57:38.830Z,4.60
2022-09-17T18:05:44.141Z,5.80
2022-09-17T18:13:54.747Z,6.00
2022-09-17T18:22:00.077Z,5.72
2022-09-17T18:30:09.132Z,5.20
2022-09-17T18:38:14.460Z,5.00
2022-09-17T18:46:25.491Z,4.53
2022-09-17T18:54:30.839Z,5.45
2022-09-17T19:02:38.742Z,5.03
2022-09-17T19:10:44.062Z,5.72
2022-09-17T19:18:52.090Z,5.38
2022-09-17T19:26:58.961Z,4.50
2022-09-17T19:35:08.726Z,5.40
2022-09-17T19:43:15.166Z,4.93
2022-09-17T19:51:24.220Z,4.15
2022-09-17T19:59:29.572Z,4.55
2022-09-17T20:07:37.511Z,4.22
2022-09-17T20:15:52.217Z,3.92
2022-09-17T20:24:01.016Z,4.50
2022-09-17T20:32:06.437Z,4.32
2022-09-17T20:40:16.072Z,3.90
2022-09-17T20:48:21.451Z,4.13
2022-09-17T20:56:31.553Z,5.50
2022-09-17T21:04:36.923Z,6.28
2022-09-17T21:12:44.871Z,6.60
2022-09-17T21:20:50.178Z,6.88
2022-09-17T21:28:59.394Z,6.93
2022-09-17T21:37:05.751Z,6.13
2022-09-17T21:45:13.709Z,3.70
2022-09-17T21:53:19.018Z,1.50
2022-09-17T22:01:31.211Z,1.40
2022-09-17T22:09:36.666Z,1.10
2022-09-17T22:17:44.551Z,0.98
2022-09-17T22:25:49.885Z,0.80
2022-09-17T22:33:58.010Z,0.90
2022-09-17T22:42:03.379Z,0.70
2022-09-17T22:50:12.942Z,0.80
2022-09-17T22:58:21.091Z,0.80
2022-09-17T23:06:31.031Z,0.70
2022-09-17T23:14:36.467Z,0.80
2022-09-17T23:22:44.486Z,0.82
2022-09-17T23:30:49.880Z,0.68
2022-09-17T23:38:59.693Z,0.63
2022-09-17T23:47:05.654Z,0.30
2022-09-17T23:55:13.760Z,0.60
